Time;durP1;ratioP1;P1;durP2;ratioP2;P2;SDS_P1;SDS_P2;PMS_P1;PMS_P2;Temp;Humidity;BMP_temperature;BMP_pressure;BME280_temperature;BME280_humidity;BME280_pressure;Samples;Min_cycle;Max_cycle;Signal;HPM_P1;HPM_P2
2021/06/06 00:00:55;;;;;;;28.15;23.27;;;;;;;13.17;59.91;99786.22;5095276;28;20039;-76
2021/06/06 00:03:24;;;;;;;29.38;22.58;;;;;;;13.12;59.67;99794.63;5045695;28;20409;-76
2021/06/06 00:05:55;;;;;;;38.67;22.80;;;;;;;13.09;60.34;99794.06;5045390;28;20134;-77
2021/06/06 00:08:22;;;;;;;34.05;21.08;;;;;;;13.06;60.05;99795.16;5062459;28;20043;-76
2021/06/06 00:10:48;;;;;;;27.30;18.80;;;;;;;13.03;60.46;99799.94;5078230;28;20040;-76
2021/06/06 00:13:15;;;;;;;24.70;15.82;;;;;;;12.77;61.86;99802.06;5061509;28;20074;-78
2021/06/06 00:15:41;;;;;;;28.65;15.80;;;;;;;12.47;63.10;99797.38;5094771;28;20555;-76
2021/06/06 00:18:07;;;;;;;21.50;15.43;;;;;;;12.34;63.40;99798.38;5095476;28;20402;-76
2021/06/06 00:20:33;;;;;;;23.30;17.30;;;;;;;12.13;64.79;99805.44;5095292;28;20047;-76
2021/06/06 00:22:59;;;;;;;24.05;15.23;;;;;;;11.94;65.25;99795.31;5082632;28;20050;-76
2021/06/06 00:25:25;;;;;;;23.95;15.40;;;;;;;11.83;66.27;99797.94;5099172;28;20087;-77
2021/06/06 00:27:55;;;;;;;19.92;14.30;;;;;;;11.85;66.62;99794.22;5099717;28;20035;-77
2021/06/06 00:30:21;;;;;;;23.30;14.88;;;;;;;11.88;66.14;99796.66;5099163;28;20052;-76
2021/06/06 00:32:47;;;;;;;22.95;14.15;;;;;;;11.93;66.12;99798.97;5098942;28;20554;-77
2021/06/06 00:35:14;;;;;;;19.08;13.38;;;;;;;11.99;66.09;99802.97;5081962;28;20104;-76
2021/06/06 00:37:41;;;;;;;24.27;13.20;;;;;;;11.99;66.36;99787.75;5082140;28;20043;-76
2021/06/06 00:40:08;;;;;;;15.43;12.80;;;;;;;11.99;66.35;99800.31;5048733;28;20043;-76
2021/06/06 00:42:37;;;;;;;21.38;12.70;;;;;;;11.87;67.24;99807.47;5065613;28;20082;-75
2021/06/06 00:45:06;;;;;;;16.70;11.40;;;;;;;11.86;66.68;99792.38;5065561;28;20047;-76
2021/06/06 00:47:33;;;;;;;15.75;11.07;;;;;;;12.03;66.83;99804.44;5082074;28;20042;-75
2021/06/06 00:50:00;;;;;;;18.52;11.15;;;;;;;11.97;67.14;99802.25;5098786;28;20059;-76
2021/06/06 00:52:26;;;;;;;23.77;11.02;;;;;;;11.97;67.27;99799.59;5098761;28;20477;-76
2021/06/06 00:54:52;;;;;;;29.17;10.20;;;;;;;12.12;66.69;99798.38;5098599;28;20123;-76
2021/06/06 00:57:24;;;;;;;16.15;10.32;;;;;;;12.24;66.19;99794.72;5065832;28;20472;-77
2021/06/06 01:00:05;;;;;;;18.70;9.30;;;;;;;12.36;65.76;99806.28;5066897;28;20069;-76
2021/06/06 01:02:34;;;;;;;21.80;10.25;;;;;;;12.42;65.87;99807.63;5098630;28;20043;-76
2021/06/06 01:05:07;;;;;;;16.05;9.23;;;;;;;12.50;65.02;99797.97;5098805;28;20039;-77
2021/06/06 01:07:34;;;;;;;21.85;9.77;;;;;;;12.50;64.10;99794.44;5048658;28;20043;-77
2021/06/06 01:10:03;;;;;;;20.15;8.32;;;;;;;12.58;63.42;99794.69;5082282;28;20501;-77
2021/06/06 01:12:31;;;;;;;24.50;9.50;;;;;;;12.61;63.62;99794.44;5082029;28;20065;-78
2021/06/06 01:15:15;;;;;;;21.13;7.35;;;;;;;12.86;62.69;99796.81;5082274;28;20043;-77
2021/06/06 01:17:48;;;;;;;18.58;7.95;;;;;;;12.99;61.92;99793.13;5050044;28;20514;-76
2021/06/06 01:20:29;;;;;;;20.80;7.03;;;;;;;12.85;61.79;99792.41;5082525;28;20047;-76
2021/06/06 01:23:35;;;;;;;16.15;6.50;;;;;;;12.94;60.78;99789.94;5065015;28;20132;-77
2021/06/06 01:26:29;;;;;;;15.85;7.65;;;;;;;13.01;60.54;99793.81;5065059;28;20405;-78
2021/06/06 01:28:58;;;;;;;18.60;7.25;;;;;;;13.18;60.21;99792.44;5100985;28;20134;-76
2021/06/06 01:31:24;;;;;;;27.65;7.90;;;;;;;13.37;60.04;99795.31;5064370;28;20118;-77
2021/06/06 01:33:58;;;;;;;22.98;7.18;;;;;;;13.66;59.84;99786.63;5063182;28;20153;-77
2021/06/06 01:36:31;;;;;;;26.92;7.40;;;;;;;13.79;59.02;99795.31;5047968;28;20047;-76
2021/06/06 01:39:05;;;;;;;16.50;8.00;;;;;;;13.99;58.20;99788.19;5082462;28;20066;-77
2021/06/06 01:41:38;;;;;;;18.20;8.10;;;;;;;14.16;57.49;99792.97;5065268;28;20047;-74
2021/06/06 01:44:11;;;;;;;24.35;8.23;;;;;;;14.45;56.80;99776.09;5049476;28;20047;-74
2021/06/06 01:46:41;;;;;;;16.17;7.30;;;;;;;14.86;55.83;99782.31;5064661;28;20039;-74
2021/06/06 01:49:09;;;;;;;19.55;8.10;;;;;;;15.11;55.20;99789.84;5064433;28;20047;-75
2021/06/06 01:51:40;;;;;;;23.10;9.13;;;;;;;15.20;54.70;99769.31;5081462;28;20502;-77
2021/06/06 01:54:09;;;;;;;26.45;8.15;;;;;;;15.43;53.72;99777.94;5064258;28;20556;-77
2021/06/06 01:56:37;;;;;;;27.02;9.32;;;;;;;15.32;53.00;99778.09;5064614;28;20039;-76
2021/06/06 01:59:07;;;;;;;36.20;11.32;;;;;;;15.51;52.84;99773.53;5064014;28;20039;-75
2021/06/06 02:01:40;;;;;;;43.92;11.90;;;;;;;15.40;52.24;99772.81;5066393;28;20063;-76
2021/06/06 02:04:06;;;;;;;39.88;10.80;;;;;;;15.33;53.17;99764.47;5080440;28;20525;-75
2021/06/06 02:07:03;;;;;;;53.28;13.55;;;;;;;15.36;52.68;99772.25;5064466;28;20135;-75
2021/06/06 02:09:42;;;;;;;55.20;13.68;;;;;;;15.41;53.21;99769.97;5067293;28;20141;-77
2021/06/06 02:12:32;;;;;;;69.65;14.90;;;;;;;15.52;52.29;99774.38;5087546;28;20521;-76
2021/06/06 02:15:07;;;;;;;65.38;13.50;;;;;;;15.50;52.82;99760.22;5065454;28;20040;-76
2021/06/06 02:17:37;;;;;;;89.65;15.70;;;;;;;15.62;52.11;99769.81;5081234;28;20136;-76
2021/06/06 02:20:16;;;;;;;73.80;13.70;;;;;;;15.52;51.83;99763.59;5080402;28;20071;-80
2021/06/06 02:22:46;;;;;;;71.47;13.93;;;;;;;15.52;51.79;99763.59;5065113;28;20071;-79
2021/06/06 02:25:15;;;;;;;61.22;13.18;;;;;;;15.55;51.11;99769.53;5097269;28;20050;-79
2021/06/06 02:27:52;;;;;;;83.70;15.02;;;;;;;15.78;50.67;99762.00;5080706;28;20044;-78
2021/06/06 02:30:44;;;;;;;99.00;16.33;;;;;;;15.93;49.77;99767.78;5064596;28;20112;-77
2021/06/06 02:33:17;;;;;;;85.20;14.48;;;;;;;16.19;49.48;99759.03;5054169;28;20059;-77
2021/06/06 02:35:51;;;;;;;76.57;13.68;;;;;;;16.45;48.28;99764.59;5080198;28;20403;-79
2021/06/06 02:38:54;;;;;;;68.72;14.07;;;;;;;16.67;47.88;99761.50;5063617;28;20035;-77
2021/06/06 02:41:28;;;;;;;71.65;11.85;;;;;;;16.86;46.51;99765.09;5063612;28;20051;-75
2021/06/06 02:44:26;;;;;;;53.72;9.50;;;;;;;17.03;46.21;99766.09;5064934;28;20181;-74
2021/06/06 02:47:02;;;;;;;45.42;8.55;;;;;;;17.11;45.24;99758.06;5081328;28;20144;-75
2021/06/06 02:49:36;;;;;;;47.50;6.80;;;;;;;17.13;44.47;99764.19;5064943;28;20118;-75
2021/06/06 02:52:13;;;;;;;54.75;7.18;;;;;;;17.16;44.83;99753.91;5063531;28;20059;-75
2021/06/06 02:54:48;;;;;;;50.65;6.50;;;;;;;17.29;44.31;99755.38;5049084;28;20036;-76
2021/06/06 02:57:22;;;;;;;33.38;5.85;;;;;;;17.41;44.37;99760.38;5064194;28;20070;-76
2021/06/06 02:59:59;;;;;;;18.65;5.25;;;;;;;17.50;43.95;99757.75;5097896;28;20375;-76
2021/06/06 03:02:37;;;;;;;21.63;3.85;;;;;;;17.61;44.03;99755.63;5065584;28;20051;-75
2021/06/06 03:05:11;;;;;;;15.23;4.65;;;;;;;17.70;43.53;99760.06;5064754;28;20047;-77
2021/06/06 03:07:48;;;;;;;17.55;4.63;;;;;;;17.80;43.04;99749.19;5063857;28;20075;-75
2021/06/06 03:10:18;;;;;;;16.17;3.70;;;;;;;17.86;43.10;99748.53;5063768;28;20046;-77
2021/06/06 03:12:46;;;;;;;23.55;4.13;;;;;;;17.87;42.67;99738.59;5062661;28;20097;-76
2021/06/06 03:15:14;;;;;;;17.27;3.50;;;;;;;17.94;42.41;99739.63;5062995;28;20426;-78
2021/06/06 03:17:43;;;;;;;;;;;;;;;18.03;42.07;99744.09;5047046;28;20506;-75
2021/06/06 03:20:16;;;;;;;13.77;3.38;;;;;;;18.06;41.58;99742.94;5096009;28;20395;-76
2021/06/06 03:22:44;;;;;;;18.83;3.38;;;;;;;18.12;42.02;99745.81;5062818;28;20047;-75
2021/06/06 03:25:32;;;;;;;23.52;3.22;;;;;;;18.20;41.38;99745.00;5079145;28;20856;-77
2021/06/06 03:28:03;;;;;;;28.27;3.58;;;;;;;18.18;41.47;99737.06;5099366;28;20051;-77
2021/06/06 03:30:32;;;;;;;18.67;2.90;;;;;;;18.27;40.42;99750.63;5114131;28;20108;-86
2021/06/06 03:33:04;;;;;;;15.50;2.97;;;;;;;18.26;40.31;99738.13;5062786;28;20054;-83
2021/06/06 03:35:30;;;;;;;;;;;;;;;18.15;39.79;99731.13;5046041;28;20036;-77
2021/06/06 03:37:56;;;;;;;14.38;2.80;;;;;;;18.01;39.31;99729.88;5095605;28;19927;-82
2021/06/06 03:40:25;;;;;;;8.90;2.45;;;;;;;18.01;39.66;99729.88;5062654;28;20043;-78
2021/06/06 03:43:05;;;;;;;14.57;2.42;;;;;;;18.01;39.55;99721.75;5113748;28;20502;-79
2021/06/06 03:45:31;;;;;;;14.57;2.60;;;;;;;18.01;38.62;99724.47;5062038;28;20463;-77
2021/06/06 03:47:58;;;;;;;14.07;2.28;;;;;;;18.12;38.37;99709.81;5113620;28;20448;-78
2021/06/06 03:50:28;;;;;;;7.05;2.00;;;;;;;18.09;36.72;99719.13;5095124;28;20490;-84
2021/06/06 03:52:54;;;;;;;21.67;2.60;;;;;;;18.01;36.49;99723.63;5078741;28;20463;-79
2021/06/06 03:55:21;;;;;;;6.43;2.50;;;;;;;18.13;37.05;99715.06;5077799;28;20449;-81
2021/06/06 03:57:50;;;;;;;21.50;3.67;;;;;;;17.94;36.70;99715.28;5062410;28;20414;-82
2021/06/06 04:00:32;;;;;;;13.98;2.50;;;;;;;17.99;36.79;99710.25;5079301;28;20047;-79
2021/06/06 04:03:02;;;;;;;8.50;1.75;;;;;;;17.81;36.27;99707.63;5079643;28;20487;-76
2021/06/06 04:05:32;;;;;;;6.95;1.70;;;;;;;18.06;37.09;99699.66;5113413;28;20148;-77
2021/06/06 04:08:02;;;;;;;4.57;2.03;;;;;;;18.39;37.35;99701.47;5062870;28;20043;-77
2021/06/06 04:10:30;;;;;;;4.53;2.42;;;;;;;18.63;37.07;99703.41;5061859;28;20455;-78
2021/06/06 04:13:00;;;;;;;3.58;2.13;;;;;;;18.81;37.23;99695.19;5094899;28;20131;-79
2021/06/06 04:15:26;;;;;;;20.13;3.08;;;;;;;19.06;37.20;99709.56;5062174;28;20063;-78
2021/06/06 04:17:53;;;;;;;12.70;2.78;;;;;;;19.22;36.87;99702.47;5087477;28;20089;-80
2021/06/06 04:20:22;;;;;;;7.77;2.40;;;;;;;19.38;36.90;99702.47;5078797;28;20043;-79
2021/06/06 04:22:51;;;;;;;7.05;2.10;;;;;;;19.52;36.49;99703.63;5062412;28;20046;-78
2021/06/06 04:25:17;;;;;;;1.60;1.50;;;;;;;19.62;36.39;99694.31;5095095;28;20038;-78
2021/06/06 04:27:43;;;;;;;4.60;1.60;;;;;;;19.74;36.66;99693.97;5094819;28;20051;-77
2021/06/06 04:30:11;;;;;;;9.68;1.70;;;;;;;19.86;36.35;99692.59;5095231;28;20043;-78
2021/06/06 04:32:37;;;;;;;10.35;1.40;;;;;;;19.96;36.81;99690.50;5094992;28;20039;-76
2021/06/06 04:35:04;;;;;;;6.07;1.30;;;;;;;20.00;36.41;99691.00;5072585;28;20039;-78
2021/06/06 04:37:32;;;;;;;8.85;1.50;;;;;;;19.98;36.55;99674.91;5062026;28;20152;-78
2021/06/06 04:39:58;;;;;;;2.55;1.55;;;;;;;20.06;36.59;99674.88;5094795;28;20048;-78
2021/06/06 04:42:24;;;;;;;8.68;1.52;;;;;;;20.18;36.58;99677.19;5094710;28;20054;-77
2021/06/06 04:44:55;;;;;;;3.40;1.50;;;;;;;20.18;36.35;99677.19;5113581;28;20039;-80
2021/06/06 04:47:22;;;;;;;6.38;1.40;;;;;;;20.23;36.38;99685.66;5061747;28;20140;-79
2021/06/06 04:49:53;;;;;;;2.58;1.23;;;;;;;20.22;36.75;99675.81;5078532;28;20043;-76
2021/06/06 04:52:19;;;;;;;6.20;1.58;;;;;;;20.31;37.03;99672.03;5094541;28;20112;-77
2021/06/06 04:54:49;;;;;;;2.45;1.30;;;;;;;20.39;37.17;99672.00;5094831;28;20120;-77
2021/06/06 04:57:16;;;;;;;7.90;1.70;;;;;;;20.50;37.23;99679.78;5077970;28;20043;-75
2021/06/06 04:59:42;;;;;;;3.88;1.52;;;;;;;20.67;37.46;99676.97;5061366;28;20510;-76
2021/06/06 05:02:12;;;;;;;6.43;2.10;;;;;;;20.67;37.39;99674.25;5094012;28;20169;-77
2021/06/06 05:04:45;;;;;;;2.97;1.65;;;;;;;20.79;37.58;99664.66;5075204;28;20059;-78
2021/06/06 05:07:12;;;;;;;9.80;1.80;;;;;;;20.97;37.34;99665.19;5094271;28;20055;-78
2021/06/06 05:09:40;;;;;;;5.60;1.60;;;;;;;21.17;37.24;99661.97;5048450;28;20043;-77
2021/06/06 05:12:09;;;;;;;10.63;2.00;;;;;;;21.21;36.89;99661.44;5097815;28;20051;-77
2021/06/06 05:14:38;;;;;;;4.68;1.40;;;;;;;21.28;35.62;99665.09;5116015;28;20502;-76
2021/06/06 05:17:05;;;;;;;12.93;1.73;;;;;;;21.25;35.61;99649.16;5097836;28;20084;-77
2021/06/06 05:19:40;;;;;;;6.25;1.50;;;;;;;21.27;34.42;99652.53;5098157;28;20039;-77
2021/06/06 05:22:07;;;;;;;7.85;1.77;;;;;;;21.27;35.58;99659.84;5065093;28;20100;-78
2021/06/06 05:24:35;;;;;;;4.80;1.35;;;;;;;21.41;35.92;99648.19;5098512;28;20048;-77
2021/06/06 05:27:01;;;;;;;8.73;1.50;;;;;;;21.60;34.74;99646.81;5098087;28;20043;-77
2021/06/06 05:29:27;;;;;;;9.40;1.60;;;;;;;21.70;34.91;99644.66;5116277;28;20066;-77
2021/06/06 05:31:53;;;;;;;9.23;1.60;;;;;;;21.80;34.66;99636.19;5115956;28;20485;-77
2021/06/06 05:34:19;;;;;;;7.63;1.67;;;;;;;21.92;34.27;99645.56;5116067;28;20038;-78
2021/06/06 05:36:45;;;;;;;6.43;1.40;;;;;;;22.06;34.56;99642.00;5098150;28;20040;-79
2021/06/06 05:39:11;;;;;;;7.60;1.55;;;;;;;22.12;33.60;99628.69;5115844;28;20529;-77
2021/06/06 05:41:38;;;;;;;11.55;1.92;;;;;;;22.26;34.08;99641.44;5064405;28;20457;-79
2021/06/06 05:44:05;;;;;;;6.97;2.22;;;;;;;22.27;33.42;99627.66;5098132;28;20040;-78
2021/06/06 05:46:31;;;;;;;5.22;1.30;;;;;;;22.07;32.85;99630.06;5064465;28;20036;-78
2021/06/06 05:48:58;;;;;;;5.95;1.55;;;;;;;22.25;33.31;99632.41;5047962;28;20141;-76
2021/06/06 05:51:24;;;;;;;7.88;1.45;;;;;;;22.22;32.43;99618.34;5097308;28;20059;-77
2021/06/06 05:53:59;;;;;;;3.22;1.23;;;;;;;22.33;32.92;99630.63;5080452;28;20035;-77
2021/06/06 05:56:25;;;;;;;10.30;1.50;;;;;;;22.29;33.39;99627.44;5115762;28;20035;-76
2021/06/06 05:58:53;;;;;;;10.85;1.80;;;;;;;22.34;33.55;99627.72;5115538;28;20130;-77
2021/06/06 06:01:19;;;;;;;9.13;1.80;;;;;;;22.37;33.73;99623.75;5081223;28;20525;-77
2021/06/06 06:03:45;;;;;;;7.95;1.40;;;;;;;22.57;33.04;99624.84;5115468;28;20051;-76
2021/06/06 06:06:11;;;;;;;6.72;1.77;;;;;;;22.67;32.26;99614.44;5115601;28;20407;-77
2021/06/06 06:08:42;;;;;;;6.10;1.48;;;;;;;22.90;32.55;99622.41;5097548;28;20050;-77
2021/06/06 06:11:11;;;;;;;6.15;1.40;;;;;;;23.05;32.63;99619.63;5080580;28;20408;-78
2021/06/06 06:13:37;;;;;;;7.07;1.35;;;;;;;23.11;31.83;99612.56;5063883;28;20036;-78
2021/06/06 06:16:06;;;;;;;5.07;1.23;;;;;;;23.21;31.30;99596.72;5047552;28;20044;-78
2021/06/06 06:18:33;;;;;;;4.57;1.43;;;;;;;23.32;31.13;99598.91;5063602;28;20036;-79
2021/06/06 06:21:00;;;;;;;1.50;1.20;;;;;;;22.96;30.75;99615.38;5064043;28;20047;-78
2021/06/06 06:23:26;;;;;;;5.97;1.17;;;;;;;23.09;31.84;99606.47;5063485;28;20498;-76
2021/06/06 06:25:52;;;;;;;5.20;1.42;;;;;;;23.27;30.82;99613.09;5097362;28;20051;-77
2021/06/06 06:28:18;;;;;;;2.10;0.95;;;;;;;23.21;30.51;99608.47;5096974;28;20138;-77
2021/06/06 06:31:03;;;;;;;3.05;1.13;;;;;;;23.34;30.85;99599.53;5115062;28;20179;-77
2021/06/06 06:33:37;;;;;;;3.30;1.10;;;;;;;23.36;30.31;99602.06;5096776;28;20050;-76
2021/06/06 06:36:03;;;;;;;3.45;1.00;;;;;;;23.38;30.82;99592.63;5096765;28;20075;-77
2021/06/06 06:38:30;;;;;;;4.68;1.30;;;;;;;23.61;30.74;99594.25;5080709;28;20039;-77
2021/06/06 06:40:56;;;;;;;8.35;0.85;;;;;;;23.65;28.45;99596.34;5096813;28;20054;-77
2021/06/06 06:43:22;;;;;;;3.60;1.40;;;;;;;23.79;28.12;99594.59;5063972;28;20043;-76
2021/06/06 06:45:49;;;;;;;2.42;1.10;;;;;;;23.81;28.14;99591.63;5079832;28;20052;-77
2021/06/06 06:48:18;;;;;;;4.70;1.30;;;;;;;24.13;28.11;99599.16;5096927;28;20057;-76
2021/06/06 06:50:44;;;;;;;;;;;;;;;24.18;27.39;99588.47;5096958;28;20056;-76
2021/06/06 06:53:10;;;;;;;0.93;0.90;;;;;;;24.22;27.81;99583.41;5096542;28;20443;-77
2021/06/06 06:55:36;;;;;;;2.33;0.90;;;;;;;24.46;26.93;99584.78;5079203;28;20055;-77
2021/06/06 06:58:03;;;;;;;3.55;1.10;;;;;;;24.52;27.72;99583.94;5114989;28;20119;-78
2021/06/06 07:00:31;;;;;;;10.82;1.50;;;;;;;24.52;27.70;99577.63;5096444;28;20584;-78
2021/06/06 07:02:57;;;;;;;2.63;1.02;;;;;;;24.18;26.62;99573.94;5079317;28;20107;-77
2021/06/06 07:05:23;;;;;;;3.50;1.10;;;;;;;24.38;27.34;99574.84;5114397;28;20486;-77
2021/06/06 07:07:50;;;;;;;7.15;1.20;;;;;;;24.73;27.73;99569.25;5114230;28;20047;-77
2021/06/06 07:10:18;;;;;;;6.22;1.33;;;;;;;24.87;27.07;99560.03;5114317;28;20043;-78
2021/06/06 07:12:44;;;;;;;8.60;1.20;;;;;;;24.94;25.77;99555.41;5079362;28;20048;-76
2021/06/06 07:15:11;;;;;;;4.13;1.17;;;;;;;24.99;26.21;99562.13;5114441;28;20112;-76
2021/06/06 07:17:37;;;;;;;1.38;0.95;;;;;;;25.08;26.10;99560.84;5113949;28;20050;-77
2021/06/06 07:20:06;;;;;;;10.50;1.23;;;;;;;25.16;25.95;99552.44;5113887;28;20047;-77
2021/06/06 07:22:33;;;;;;;4.00;1.10;;;;;;;25.23;25.59;99553.28;5079208;28;20043;-80
2021/06/06 07:24:59;;;;;;;3.53;1.00;;;;;;;25.23;24.90;99553.28;5095945;28;20040;-78
2021/06/06 07:27:25;;;;;;;3.92;0.90;;;;;;;25.45;25.45;99551.13;5114383;28;20089;-79
2021/06/06 07:29:53;;;;;;;5.80;0.95;;;;;;;25.32;24.28;99546.53;5117665;27;20490;-79
2021/06/06 07:32:22;;;;;;;4.80;1.00;;;;;;;25.34;24.96;99558.09;5072865;27;20047;-79
2021/06/06 07:34:48;;;;;;;5.35;0.95;;;;;;;25.52;24.74;99551.13;5118336;27;20130;-78
2021/06/06 07:37:14;;;;;;;3.80;1.05;;;;;;;25.70;25.07;99545.81;5105272;27;20061;-78
2021/06/06 07:39:40;;;;;;;5.90;1.48;;;;;;;25.74;25.11;99538.00;5134368;27;20035;-79
2021/06/06 07:42:10;;;;;;;2.20;1.02;;;;;;;25.36;24.56;99542.31;5115723;27;20414;-76
2021/06/06 07:44:37;;;;;;;9.20;1.23;;;;;;;25.28;24.88;99545.28;5112606;28;20050;-78
2021/06/06 07:47:06;;;;;;;3.95;1.20;;;;;;;25.46;25.32;99546.50;5113567;28;20490;-78
2021/06/06 07:49:36;;;;;;;5.03;0.85;;;;;;;25.60;24.91;99548.16;5113345;28;20039;-79
2021/06/06 07:52:02;;;;;;;4.38;0.88;;;;;;;26.05;24.88;99551.78;5062057;28;20055;-83
2021/06/06 07:54:29;;;;;;;1.65;1.10;;;;;;;26.18;23.57;99545.41;5095474;28;20063;-76
2021/06/06 07:56:57;;;;;;;6.00;1.45;;;;;;;26.43;23.30;99536.41;5078766;28;20049;-75
2021/06/06 07:59:24;;;;;;;1.35;1.00;;;;;;;26.48;23.05;99529.25;5131755;27;20055;-76
2021/06/06 08:01:50;;;;;;;5.55;1.30;;;;;;;26.54;22.48;99541.19;5098512;27;20047;-76
2021/06/06 08:04:19;;;;;;;3.42;1.27;;;;;;;26.43;23.04;99533.66;5115647;27;20223;-74
2021/06/06 08:06:47;;;;;;;4.65;1.00;;;;;;;26.38;23.31;99529.69;5098895;27;20061;-75
2021/06/06 08:09:13;;;;;;;3.78;1.10;;;;;;;26.46;23.50;99525.03;5134217;27;20115;-73
2021/06/06 08:11:40;;;;;;;2.42;1.10;;;;;;;26.72;22.90;99527.56;5081702;28;20560;-75
2021/06/06 08:14:06;;;;;;;2.50;1.15;;;;;;;26.76;23.45;99526.06;5115602;28;20035;-73
2021/06/06 08:16:32;;;;;;;4.85;1.00;;;;;;;26.75;23.24;99524.38;5098760;28;20043;-72
2021/06/06 08:18:58;;;;;;;2.65;1.10;;;;;;;26.68;22.89;99523.59;5115303;28;20149;-72
2021/06/06 08:21:29;;;;;;;4.63;1.00;;;;;;;26.88;23.15;99521.50;5133951;28;20502;-73
2021/06/06 08:23:56;;;;;;;3.72;0.95;;;;;;;27.09;23.23;99530.41;5116195;28;20486;-73
2021/06/06 08:26:23;;;;;;;4.55;1.40;;;;;;;27.04;22.87;99516.53;5133618;28;20051;-74
2021/06/06 08:28:49;;;;;;;2.03;0.90;;;;;;;27.03;23.78;99525.81;5115443;28;20126;-75
2021/06/06 08:31:17;;;;;;;2.55;1.30;;;;;;;27.04;23.89;99524.75;5081652;27;20039;-78
2021/06/06 08:33:43;;;;;;;1.13;1.02;;;;;;;26.91;23.17;99528.47;5097514;27;20557;-73
2021/06/06 08:36:24;;;;;;;6.18;1.00;;;;;;;26.81;22.94;99531.69;5133129;27;20051;-75
2021/06/06 08:38:54;;;;;;;1.90;0.80;;;;;;;26.91;23.01;99505.69;5081886;28;20043;-76
2021/06/06 08:41:29;;;;;;;1.48;0.90;;;;;;;27.21;23.08;99511.34;5097856;27;20133;-73
2021/06/06 08:44:20;;;;;;;5.55;1.05;;;;;;;27.26;21.93;99504.09;5118814;27;20137;-79
2021/06/06 08:47:04;;;;;;;2.05;1.15;;;;;;;27.53;21.94;99506.53;5103357;27;20053;-74
2021/06/06 08:49:47;;;;;;;1.67;0.90;;;;;;;27.71;21.61;99506.53;5069747;27;20424;-74
2021/06/06 08:52:19;;;;;;;7.72;1.20;;;;;;;27.82;21.83;99503.03;5101682;27;20112;-75
2021/06/06 08:54:57;;;;;;;8.32;1.30;;;;;;;27.33;21.80;99507.59;5118651;27;20058;-76
2021/06/06 08:57:45;;;;;;;4.82;1.33;;;;;;;27.60;22.04;99501.81;5102044;27;20088;-73
2021/06/06 09:00:17;;;;;;;;;;;;;;;27.82;21.96;99492.03;5119266;27;20047;-75
2021/06/06 09:02:56;;;;;;;3.45;1.25;;;;;;;27.95;21.57;99490.22;5136332;27;19919;-74
2021/06/06 09:05:25;;;;;;;2.13;1.10;;;;;;;27.85;21.34;99474.28;5068677;27;20038;-74
2021/06/06 09:07:51;;;;;;;3.17;1.20;;;;;;;27.71;21.51;99484.53;5119466;27;20043;-74
2021/06/06 09:10:24;;;;;;;7.75;1.20;;;;;;;27.96;21.95;99478.97;5085192;27;20088;-74
2021/06/06 09:12:50;;;;;;;10.18;1.20;;;;;;;28.32;22.80;99479.91;5137007;27;20047;-76
2021/06/06 09:15:18;;;;;;;5.85;1.33;;;;;;;28.77;21.73;99483.03;5119068;27;20554;-75
2021/06/06 09:17:53;;;;;;;2.95;1.02;;;;;;;28.87;21.24;99476.09;5084945;27;20085;-75
2021/06/06 09:20:37;;;;;;;6.10;1.33;;;;;;;29.17;20.92;99470.50;5084940;27;20043;-76
2021/06/06 09:23:28;;;;;;;6.95;1.33;;;;;;;29.08;20.85;99471.94;5118220;27;20047;-75
2021/06/06 09:26:06;;;;;;;1.48;0.90;;;;;;;29.02;20.41;99468.22;5101660;27;20397;-75
2021/06/06 09:28:35;;;;;;;7.65;1.10;;;;;;;28.88;20.49;99451.06;5101990;27;20398;-76
2021/06/06 09:31:16;;;;;;;3.72;1.05;;;;;;;29.02;20.33;99459.97;5101585;27;20042;-75
2021/06/06 09:33:51;;;;;;;4.55;1.20;;;;;;;29.33;20.96;99450.47;5101707;27;20552;-75
2021/06/06 09:36:17;;;;;;;5.18;0.98;;;;;;;29.87;20.64;99447.47;5136651;27;20180;-75
2021/06/06 09:38:43;;;;;;;1.98;1.20;;;;;;;30.13;21.37;99446.03;5136463;27;20134;-75
2021/06/06 09:41:18;;;;;;;2.28;1.10;;;;;;;30.56;20.11;99439.91;5084459;27;20047;-74
2021/06/06 09:44:13;;;;;;;3.03;1.10;;;;;;;31.01;19.21;99444.47;5136665;27;20418;-75
2021/06/06 09:46:42;;;;;;;4.38;1.20;;;;;;;30.66;19.33;99439.22;5118202;27;20087;-75
2021/06/06 09:49:22;;;;;;;3.47;0.75;;;;;;;30.78;19.36;99436.41;5118247;27;20062;-75
2021/06/06 09:51:49;;;;;;;7.40;1.17;;;;;;;30.47;19.25;99430.38;5119070;27;20057;-76
2021/06/06 09:54:25;;;;;;;3.25;1.20;;;;;;;30.43;19.15;99429.22;5134833;27;20139;-75
2021/06/06 09:56:53;;;;;;;3.40;0.90;;;;;;;30.73;18.75;99428.88;5101704;27;20416;-75
2021/06/06 09:59:45;;;;;;;8.55;1.17;;;;;;;30.58;18.97;99426.69;5051283;27;20046;-74
2021/06/06 10:02:11;;;;;;;5.30;1.77;;;;;;;30.96;19.35;99419.56;5131015;27;20055;-76
2021/06/06 10:04:42;;;;;;;5.40;0.95;;;;;;;31.29;18.20;99421.38;5135827;27;20035;-76
2021/06/06 10:07:28;;;;;;;5.60;1.40;;;;;;;31.34;18.50;99426.19;5100447;27;20043;-75
2021/06/06 10:09:55;;;;;;;7.05;1.25;;;;;;;31.47;18.04;99427.72;5117944;27;20043;-75
2021/06/06 10:12:34;;;;;;;2.50;1.40;;;;;;;31.51;18.97;99432.47;5084079;27;20098;-74
2021/06/06 10:15:25;;;;;;;3.90;1.40;;;;;;;32.31;18.56;99405.97;5083721;27;20050;-74
2021/06/06 10:17:57;;;;;;;5.85;1.30;;;;;;;32.85;17.66;99410.53;5120314;27;20039;-74
2021/06/06 10:20:27;;;;;;;2.80;1.67;;;;;;;33.10;17.81;99413.50;5101422;27;20130;-75
2021/06/06 10:23:01;;;;;;;6.53;1.25;;;;;;;33.00;17.41;99405.13;5083480;27;20473;-75
2021/06/06 10:25:56;;;;;;;6.88;1.67;;;;;;;32.50;17.78;99402.81;5083422;27;20047;-74
2021/06/06 10:28:33;;;;;;;9.05;1.58;;;;;;;32.80;18.60;99397.50;5114773;27;20103;-74
2021/06/06 10:31:02;;;;;;;5.90;1.42;;;;;;;33.62;18.15;99402.63;5085023;27;20042;-74
2021/06/06 10:33:38;;;;;;;8.15;1.40;;;;;;;33.02;16.69;99405.66;5116896;27;20039;-74
2021/06/06 10:36:04;;;;;;;12.68;3.50;;;;;;;32.28;17.35;99394.59;5117119;27;20118;-76
2021/06/06 10:38:39;;;;;;;5.65;1.30;;;;;;;32.85;18.45;99389.22;5099992;27;20040;-74
2021/06/06 10:41:19;;;;;;;9.77;1.40;;;;;;;33.74;18.30;99383.81;5100896;27;20046;-74
2021/06/06 10:43:50;;;;;;;7.72;1.30;;;;;;;34.35;17.48;99383.09;5117102;27;20517;-74
2021/06/06 10:46:21;;;;;;;5.57;1.60;;;;;;;33.79;16.38;99365.25;5100220;27;20039;-73
2021/06/06 10:49:07;;;;;;;7.53;1.50;;;;;;;33.74;17.19;99378.25;5099605;27;20052;-75
2021/06/06 10:51:52;;;;;;;7.55;1.40;;;;;;;34.47;17.37;99370.56;5119940;27;20063;-75
2021/06/06 10:54:41;;;;;;;6.32;1.30;;;;;;;34.78;16.54;99381.66;5100028;27;20555;-74
2021/06/06 10:57:17;;;;;;;3.50;1.05;;;;;;;34.18;16.43;99373.06;5068314;27;20043;-74
2021/06/06 10:59:48;;;;;;;4.18;1.05;;;;;;;34.25;16.31;99372.81;5100326;27;20071;-76
2021/06/06 11:02:55;;;;;;;5.53;1.50;;;;;;;34.62;16.43;99363.38;5086451;27;20042;-75
2021/06/06 11:05:45;;;;;;;7.15;1.38;;;;;;;34.93;16.38;99362.16;5068450;27;20047;-74
2021/06/06 11:08:37;;;;;;;1.70;1.27;;;;;;;35.73;16.37;99353.81;5135233;27;20039;-75
2021/06/06 11:11:22;;;;;;;3.05;1.15;;;;;;;36.24;15.37;99353.41;5067086;27;20042;-76
2021/06/06 11:13:54;;;;;;;4.10;1.40;;;;;;;35.85;15.22;99355.41;5134573;27;20078;-74
2021/06/06 11:16:33;;;;;;;6.90;1.90;;;;;;;35.41;15.52;99350.63;5100140;27;20058;-75
2021/06/06 11:19:02;;;;;;;4.65;1.50;;;;;;;35.06;15.68;99348.84;5101292;27;20073;-74
2021/06/06 11:21:36;;;;;;;9.30;3.47;;;;;;;35.36;16.04;99354.25;5049516;27;20041;-75
2021/06/06 11:24:31;;;;;;;5.57;1.55;;;;;;;35.98;16.86;99354.72;5099339;27;20427;-75
2021/06/06 11:27:10;;;;;;;3.75;1.50;;;;;;;36.94;15.33;99347.47;5123022;27;20043;-74
2021/06/06 11:29:42;;;;;;;2.85;1.40;;;;;;;37.12;15.47;99347.81;5134466;27;20047;-75
2021/06/06 11:32:11;;;;;;;5.30;1.70;;;;;;;36.63;15.66;99344.16;5099078;27;20074;-76
2021/06/06 11:34:38;;;;;;;9.23;1.50;;;;;;;36.93;15.57;99337.41;5115682;27;20046;-77
2021/06/06 11:37:09;;;;;;;3.00;1.40;;;;;;;37.29;14.73;99339.78;5082353;27;20386;-75
2021/06/06 11:39:46;;;;;;;7.43;1.60;;;;;;;37.42;15.98;99327.91;5082181;27;20451;-75
2021/06/06 11:42:21;;;;;;;5.60;0.90;;;;;;;37.97;14.76;99337.75;5082759;27;20110;-75
2021/06/06 11:44:49;;;;;;;6.65;1.45;;;;;;;38.43;14.83;99335.00;5099901;27;20240;-75
2021/06/06 11:47:27;;;;;;;13.45;1.73;;;;;;;38.25;13.80;99324.69;5134048;27;20489;-75
2021/06/06 11:50:10;;;;;;;5.25;1.90;;;;;;;38.38;14.58;99326.72;5099112;27;20051;-75